sensor_id;sensor_type;location;lat;lon;timestamp;P1;durP1;ratioP1;P2;durP2;ratioP2
75550;SDS011;65071;53.082;18.218;2023-12-20T00:00:09;4.30;;;2.60;;
75550;SDS011;65071;53.082;18.218;2023-12-20T00:02:56;5.90;;;3.90;;
75550;SDS011;65071;53.082;18.218;2023-12-20T00:05:22;5.40;;;4.00;;
75550;SDS011;65071;53.082;18.218;2023-12-20T00:07:49;4.80;;;3.50;;
75550;SDS011;65071;53.082;18.218;2023-12-20T00:10:16;4.50;;;3.40;;
75550;SDS011;65071;53.082;18.218;2023-12-20T00:12:42;5.60;;;4.00;;
75550;SDS011;65071;53.082;18.218;2023-12-20T00:15:08;4.30;;;3.40;;
75550;SDS011;65071;53.082;18.218;2023-12-20T00:17:35;4.90;;;3.60;;
75550;SDS011;65071;53.082;18.218;2023-12-20T00:20:02;5.10;;;3.40;;
75550;SDS011;65071;53.082;18.218;2023-12-20T00:22:28;5.20;;;3.70;;
75550;SDS011;65071;53.082;18.218;2023-12-20T00:24:55;4.90;;;3.60;;
75550;SDS011;65071;53.082;18.218;2023-12-20T00:27:22;4.60;;;3.30;;
75550;SDS011;65071;53.082;18.218;2023-12-20T00:29:49;5.20;;;3.50;;
75550;SDS011;65071;53.082;18.218;2023-12-20T00:32:16;5.20;;;3.60;;
75550;SDS011;65071;53.082;18.218;2023-12-20T00:34:43;4.80;;;3.50;;
75550;SDS011;65071;53.082;18.218;2023-12-20T00:37:09;3.70;;;2.90;;
75550;SDS011;65071;53.082;18.218;2023-12-20T00:39:35;5.20;;;3.60;;
75550;SDS011;65071;53.082;18.218;2023-12-20T00:42:02;3.90;;;3.00;;
75550;SDS011;65071;53.082;18.218;2023-12-20T00:44:28;4.50;;;3.20;;
75550;SDS011;65071;53.082;18.218;2023-12-20T00:46:54;4.40;;;3.30;;
75550;SDS011;65071;53.082;18.218;2023-12-20T00:49:21;3.70;;;2.60;;
75550;SDS011;65071;53.082;18.218;2023-12-20T00:51:47;4.30;;;2.60;;
75550;SDS011;65071;53.082;18.218;2023-12-20T00:54:16;5.20;;;3.80;;
75550;SDS011;65071;53.082;18.218;2023-12-20T00:56:42;3.70;;;3.10;;
75550;SDS011;65071;53.082;18.218;2023-12-20T00:59:09;4.30;;;2.80;;
75550;SDS011;65071;53.082;18.218;2023-12-20T01:01:35;5.20;;;3.00;;
75550;SDS011;65071;53.082;18.218;2023-12-20T01:04:01;3.70;;;3.20;;
75550;SDS011;65071;53.082;18.218;2023-12-20T01:06:27;4.10;;;3.20;;
75550;SDS011;65071;53.082;18.218;2023-12-20T01:08:54;4.10;;;3.00;;
75550;SDS011;65071;53.082;18.218;2023-12-20T01:11:20;3.90;;;3.30;;
75550;SDS011;65071;53.082;18.218;2023-12-20T01:13:47;4.30;;;3.30;;
75550;SDS011;65071;53.082;18.218;2023-12-20T01:16:13;4.60;;;2.90;;
75550;SDS011;65071;53.082;18.218;2023-12-20T01:18:40;4.10;;;2.70;;
75550;SDS011;65071;53.082;18.218;2023-12-20T01:21:06;4.30;;;3.30;;
75550;SDS011;65071;53.082;18.218;2023-12-20T01:23:32;3.50;;;3.00;;
75550;SDS011;65071;53.082;18.218;2023-12-20T01:25:58;4.30;;;3.00;;
75550;SDS011;65071;53.082;18.218;2023-12-20T01:28:28;3.80;;;2.80;;
75550;SDS011;65071;53.082;18.218;2023-12-20T01:30:55;3.40;;;2.80;;
75550;SDS011;65071;53.082;18.218;2023-12-20T01:33:21;3.20;;;2.90;;
75550;SDS011;65071;53.082;18.218;2023-12-20T01:35:48;4.30;;;2.90;;
75550;SDS011;65071;53.082;18.218;2023-12-20T01:38:14;5.10;;;2.70;;
75550;SDS011;65071;53.082;18.218;2023-12-20T01:40:40;4.00;;;2.80;;
75550;SDS011;65071;53.082;18.218;2023-12-20T01:43:07;3.60;;;2.80;;
75550;SDS011;65071;53.082;18.218;2023-12-20T01:45:34;3.50;;;2.60;;
75550;SDS011;65071;53.082;18.218;2023-12-20T01:48:01;3.70;;;3.00;;
75550;SDS011;65071;53.082;18.218;2023-12-20T01:50:29;3.10;;;2.50;;
75550;SDS011;65071;53.082;18.218;2023-12-20T01:52:58;3.40;;;2.70;;
75550;SDS011;65071;53.082;18.218;2023-12-20T01:55:27;3.00;;;2.50;;
75550;SDS011;65071;53.082;18.218;2023-12-20T01:57:56;4.00;;;2.90;;
75550;SDS011;65071;53.082;18.218;2023-12-20T02:00:24;4.10;;;2.60;;
75550;SDS011;65071;53.082;18.218;2023-12-20T02:02:52;3.60;;;2.80;;
75550;SDS011;65071;53.082;18.218;2023-12-20T02:05:21;3.30;;;2.60;;
75550;SDS011;65071;53.082;18.218;2023-12-20T02:07:48;3.20;;;2.70;;
75550;SDS011;65071;53.082;18.218;2023-12-20T02:10:15;3.70;;;3.00;;
75550;SDS011;65071;53.082;18.218;2023-12-20T02:12:41;3.30;;;2.70;;
75550;SDS011;65071;53.082;18.218;2023-12-20T02:15:08;2.50;;;2.10;;
75550;SDS011;65071;53.082;18.218;2023-12-20T02:17:36;3.60;;;2.60;;
75550;SDS011;65071;53.082;18.218;2023-12-20T02:20:02;3.50;;;2.90;;
75550;SDS011;65071;53.082;18.218;2023-12-20T02:22:29;2.50;;;1.80;;
75550;SDS011;65071;53.082;18.218;2023-12-20T02:24:55;4.20;;;2.90;;
75550;SDS011;65071;53.082;18.218;2023-12-20T02:27:21;2.60;;;2.30;;
75550;SDS011;65071;53.082;18.218;2023-12-20T02:29:49;3.10;;;2.50;;
75550;SDS011;65071;53.082;18.218;2023-12-20T02:32:16;3.80;;;3.20;;
75550;SDS011;65071;53.082;18.218;2023-12-20T02:34:44;4.80;;;3.40;;
75550;SDS011;65071;53.082;18.218;2023-12-20T02:37:11;3.50;;;2.70;;
75550;SDS011;65071;53.082;18.218;2023-12-20T02:39:38;4.10;;;3.00;;
75550;SDS011;65071;53.082;18.218;2023-12-20T02:42:04;2.10;;;1.90;;
75550;SDS011;65071;53.082;18.218;2023-12-20T02:44:30;3.40;;;3.00;;
75550;SDS011;65071;53.082;18.218;2023-12-20T02:46:57;4.00;;;2.80;;
75550;SDS011;65071;53.082;18.218;2023-12-20T02:49:23;3.30;;;2.70;;
75550;SDS011;65071;53.082;18.218;2023-12-20T02:51:49;4.50;;;2.70;;
75550;SDS011;65071;53.082;18.218;2023-12-20T02:54:16;4.40;;;2.60;;
75550;SDS011;65071;53.082;18.218;2023-12-20T02:56:42;3.50;;;2.50;;
75550;SDS011;65071;53.082;18.218;2023-12-20T02:59:08;5.40;;;2.40;;
75550;SDS011;65071;53.082;18.218;2023-12-20T03:01:35;4.00;;;2.50;;
75550;SDS011;65071;53.082;18.218;2023-12-20T03:04:07;3.70;;;2.90;;
75550;SDS011;65071;53.082;18.218;2023-12-20T03:06:33;4.70;;;2.20;;
75550;SDS011;65071;53.082;18.218;2023-12-20T03:09:00;3.30;;;2.70;;
75550;SDS011;65071;53.082;18.218;2023-12-20T03:11:27;3.40;;;2.60;;
75550;SDS011;65071;53.082;18.218;2023-12-20T03:13:55;3.50;;;2.90;;
75550;SDS011;65071;53.082;18.218;2023-12-20T03:16:22;3.00;;;2.50;;
75550;SDS011;65071;53.082;18.218;2023-12-20T03:18:48;3.20;;;2.70;;
75550;SDS011;65071;53.082;18.218;2023-12-20T03:21:15;2.80;;;2.50;;
75550;SDS011;65071;53.082;18.218;2023-12-20T03:23:42;3.60;;;2.50;;
75550;SDS011;65071;53.082;18.218;2023-12-20T03:26:08;4.80;;;3.10;;
75550;SDS011;65071;53.082;18.218;2023-12-20T03:28:36;3.10;;;2.40;;
75550;SDS011;65071;53.082;18.218;2023-12-20T03:31:03;3.60;;;3.00;;
75550;SDS011;65071;53.082;18.218;2023-12-20T03:33:29;4.00;;;3.20;;
75550;SDS011;65071;53.082;18.218;2023-12-20T03:35:56;3.30;;;2.80;;
75550;SDS011;65071;53.082;18.218;2023-12-20T03:38:22;2.30;;;1.90;;
75550;SDS011;65071;53.082;18.218;2023-12-20T03:40:51;3.20;;;2.90;;
75550;SDS011;65071;53.082;18.218;2023-12-20T03:43:18;4.10;;;3.10;;
75550;SDS011;65071;53.082;18.218;2023-12-20T03:45:44;4.30;;;3.00;;
75550;SDS011;65071;53.082;18.218;2023-12-20T03:48:12;2.60;;;2.20;;
75550;SDS011;65071;53.082;18.218;2023-12-20T03:50:38;3.60;;;2.80;;
75550;SDS011;65071;53.082;18.218;2023-12-20T03:53:04;3.90;;;3.10;;
75550;SDS011;65071;53.082;18.218;2023-12-20T03:55:30;3.10;;;2.80;;
75550;SDS011;65071;53.082;18.218;2023-12-20T03:57:57;2.60;;;2.10;;
75550;SDS011;65071;53.082;18.218;2023-12-20T04:00:23;3.30;;;2.80;;
75550;SDS011;65071;53.082;18.218;2023-12-20T04:02:50;3.20;;;2.70;;
75550;SDS011;65071;53.082;18.218;2023-12-20T04:05:16;3.20;;;2.10;;
75550;SDS011;65071;53.082;18.218;2023-12-20T04:07:42;4.30;;;3.20;;
75550;SDS011;65071;53.082;18.218;2023-12-20T04:10:09;3.00;;;2.70;;
75550;SDS011;65071;53.082;18.218;2023-12-20T04:12:36;2.30;;;1.90;;
75550;SDS011;65071;53.082;18.218;2023-12-20T04:15:02;3.20;;;2.20;;
75550;SDS011;65071;53.082;18.218;2023-12-20T04:17:35;3.30;;;2.80;;
75550;SDS011;65071;53.082;18.218;2023-12-20T04:20:02;2.90;;;2.60;;
75550;SDS011;65071;53.082;18.218;2023-12-20T04:22:28;2.80;;;2.50;;
75550;SDS011;65071;53.082;18.218;2023-12-20T04:24:55;2.10;;;1.80;;
75550;SDS011;65071;53.082;18.218;2023-12-20T04:27:21;1.90;;;1.70;;
75550;SDS011;65071;53.082;18.218;2023-12-20T04:29:47;2.10;;;1.80;;
75550;SDS011;65071;53.082;18.218;2023-12-20T04:32:14;2.60;;;2.10;;
75550;SDS011;65071;53.082;18.218;2023-12-20T04:34:40;3.80;;;1.70;;
75550;SDS011;65071;53.082;18.218;2023-12-20T04:37:07;2.10;;;1.90;;
75550;SDS011;65071;53.082;18.218;2023-12-20T04:39:33;2.10;;;1.70;;
75550;SDS011;65071;53.082;18.218;2023-12-20T04:42:00;1.80;;;1.50;;
75550;SDS011;65071;53.082;18.218;2023-12-20T04:44:26;1.90;;;1.70;;
75550;SDS011;65071;53.082;18.218;2023-12-20T04:46:53;2.20;;;2.00;;
75550;SDS011;65071;53.082;18.218;2023-12-20T04:49:19;2.20;;;1.80;;
75550;SDS011;65071;53.082;18.218;2023-12-20T04:51:46;3.30;;;2.70;;
75550;SDS011;65071;53.082;18.218;2023-12-20T04:54:12;2.20;;;2.00;;
75550;SDS011;65071;53.082;18.218;2023-12-20T04:56:39;3.70;;;1.90;;
75550;SDS011;65071;53.082;18.218;2023-12-20T04:59:06;2.50;;;1.90;;
75550;SDS011;65071;53.082;18.218;2023-12-20T05:01:32;1.70;;;1.40;;
75550;SDS011;65071;53.082;18.218;2023-12-20T05:03:58;1.70;;;1.50;;
75550;SDS011;65071;53.082;18.218;2023-12-20T05:06:25;1.50;;;1.10;;
75550;SDS011;65071;53.082;18.218;2023-12-20T05:08:51;1.70;;;1.10;;
75550;SDS011;65071;53.082;18.218;2023-12-20T05:11:18;1.50;;;1.00;;
75550;SDS011;65071;53.082;18.218;2023-12-20T05:13:44;1.60;;;1.00;;
75550;SDS011;65071;53.082;18.218;2023-12-20T05:16:10;1.10;;;0.90;;
75550;SDS011;65071;53.082;18.218;2023-12-20T05:18:37;1.60;;;0.90;;
75550;SDS011;65071;53.082;18.218;2023-12-20T05:21:03;1.50;;;0.80;;
75550;SDS011;65071;53.082;18.218;2023-12-20T05:23:29;1.00;;;0.90;;
75550;SDS011;65071;53.082;18.218;2023-12-20T05:25:56;1.10;;;0.90;;
75550;SDS011;65071;53.082;18.218;2023-12-20T05:28:22;0.80;;;0.70;;
75550;SDS011;65071;53.082;18.218;2023-12-20T05:30:48;1.20;;;0.80;;
75550;SDS011;65071;53.082;18.218;2023-12-20T05:33:14;1.40;;;0.80;;
75550;SDS011;65071;53.082;18.218;2023-12-20T05:35:41;2.00;;;0.60;;
75550;SDS011;65071;53.082;18.218;2023-12-20T05:38:07;1.00;;;0.80;;
75550;SDS011;65071;53.082;18.218;2023-12-20T05:40:34;0.80;;;0.60;;
75550;SDS011;65071;53.082;18.218;2023-12-20T05:43:01;0.70;;;0.60;;
75550;SDS011;65071;53.082;18.218;2023-12-20T05:45:27;4.30;;;0.90;;
75550;SDS011;65071;53.082;18.218;2023-12-20T05:47:53;2.00;;;0.70;;
75550;SDS011;65071;53.082;18.218;2023-12-20T05:50:20;1.40;;;0.80;;
75550;SDS011;65071;53.082;18.218;2023-12-20T05:52:47;1.60;;;0.80;;
75550;SDS011;65071;53.082;18.218;2023-12-20T05:55:13;1.30;;;0.70;;
75550;SDS011;65071;53.082;18.218;2023-12-20T05:57:40;1.10;;;1.00;;
75550;SDS011;65071;53.082;18.218;2023-12-20T06:00:08;1.50;;;0.90;;
75550;SDS011;65071;53.082;18.218;2023-12-20T06:02:41;2.20;;;1.00;;
75550;SDS011;65071;53.082;18.218;2023-12-20T06:05:07;1.20;;;0.90;;
75550;SDS011;65071;53.082;18.218;2023-12-20T06:07:33;2.60;;;0.90;;
75550;SDS011;65071;53.082;18.218;2023-12-20T06:10:00;2.30;;;1.00;;
75550;SDS011;65071;53.082;18.218;2023-12-20T06:12:26;1.20;;;0.90;;
75550;SDS011;65071;53.082;18.218;2023-12-20T06:14:54;1.10;;;0.90;;
75550;SDS011;65071;53.082;18.218;2023-12-20T06:17:21;2.10;;;1.30;;
75550;SDS011;65071;53.082;18.218;2023-12-20T06:19:47;1.60;;;1.00;;
75550;SDS011;65071;53.082;18.218;2023-12-20T06:22:14;1.80;;;0.90;;
75550;SDS011;65071;53.082;18.218;2023-12-20T06:24:41;1.60;;;1.00;;
75550;SDS011;65071;53.082;18.218;2023-12-20T06:27:07;2.30;;;1.10;;
75550;SDS011;65071;53.082;18.218;2023-12-20T06:29:34;2.00;;;1.10;;
75550;SDS011;65071;53.082;18.218;2023-12-20T06:32:01;2.30;;;1.10;;
75550;SDS011;65071;53.082;18.218;2023-12-20T06:34:27;2.30;;;1.30;;
75550;SDS011;65071;53.082;18.218;2023-12-20T06:36:53;2.20;;;1.20;;
75550;SDS011;65071;53.082;18.218;2023-12-20T06:39:20;2.80;;;1.60;;
75550;SDS011;65071;53.082;18.218;2023-12-20T06:41:46;3.80;;;1.50;;
75550;SDS011;65071;53.082;18.218;2023-12-20T06:44:13;3.60;;;1.50;;
75550;SDS011;65071;53.082;18.218;2023-12-20T06:46:39;5.60;;;2.10;;
75550;SDS011;65071;53.082;18.218;2023-12-20T06:49:06;2.00;;;1.30;;
75550;SDS011;65071;53.082;18.218;2023-12-20T06:51:32;3.60;;;1.60;;
75550;SDS011;65071;53.082;18.218;2023-12-20T06:53:59;3.70;;;1.50;;
75550;SDS011;65071;53.082;18.218;2023-12-20T06:56:26;3.10;;;1.40;;
75550;SDS011;65071;53.082;18.218;2023-12-20T06:58:52;2.30;;;1.30;;
75550;SDS011;65071;53.082;18.218;2023-12-20T07:01:18;2.00;;;1.30;;
75550;SDS011;65071;53.082;18.218;2023-12-20T07:03:45;2.90;;;1.60;;
75550;SDS011;65071;53.082;18.218;2023-12-20T07:06:11;2.10;;;1.30;;
75550;SDS011;65071;53.082;18.218;2023-12-20T07:08:39;1.90;;;1.30;;
75550;SDS011;65071;53.082;18.218;2023-12-20T07:11:06;1.80;;;1.20;;
75550;SDS011;65071;53.082;18.218;2023-12-20T07:13:32;2.70;;;1.70;;
75550;SDS011;65071;53.082;18.218;2023-12-20T07:15:59;3.50;;;1.90;;
75550;SDS011;65071;53.082;18.218;2023-12-20T07:18:25;2.60;;;1.70;;
75550;SDS011;65071;53.082;18.218;2023-12-20T07:20:52;3.20;;;1.70;;
75550;SDS011;65071;53.082;18.218;2023-12-20T07:23:18;4.20;;;1.70;;
75550;SDS011;65071;53.082;18.218;2023-12-20T07:25:46;2.90;;;1.60;;
75550;SDS011;65071;53.082;18.218;2023-12-20T07:28:44;2.30;;;1.50;;
75550;SDS011;65071;53.082;18.218;2023-12-20T07:31:11;3.40;;;1.60;;
75550;SDS011;65071;53.082;18.218;2023-12-20T07:33:38;3.90;;;1.40;;
75550;SDS011;65071;53.082;18.218;2023-12-20T07:36:05;3.00;;;1.40;;
75550;SDS011;65071;53.082;18.218;2023-12-20T07:38:31;3.60;;;1.70;;
75550;SDS011;65071;53.082;18.218;2023-12-20T07:40:58;6.70;;;2.60;;
75550;SDS011;65071;53.082;18.218;2023-12-20T07:43:25;4.60;;;1.90;;
75550;SDS011;65071;53.082;18.218;2023-12-20T07:45:51;5.90;;;1.80;;
75550;SDS011;65071;53.082;18.218;2023-12-20T07:48:18;7.80;;;3.00;;
75550;SDS011;65071;53.082;18.218;2023-12-20T07:50:44;8.00;;;2.90;;
75550;SDS011;65071;53.082;18.218;2023-12-20T07:53:11;9.50;;;3.20;;
75550;SDS011;65071;53.082;18.218;2023-12-20T07:55:37;8.90;;;3.00;;
75550;SDS011;65071;53.082;18.218;2023-12-20T07:58:03;7.30;;;2.80;;
75550;SDS011;65071;53.082;18.218;2023-12-20T08:00:31;6.70;;;2.70;;
75550;SDS011;65071;53.082;18.218;2023-12-20T08:02:57;5.60;;;2.30;;
75550;SDS011;65071;53.082;18.218;2023-12-20T08:05:23;4.80;;;2.00;;
75550;SDS011;65071;53.082;18.218;2023-12-20T08:07:50;4.60;;;2.10;;
75550;SDS011;65071;53.082;18.218;2023-12-20T08:10:16;4.90;;;1.80;;
75550;SDS011;65071;53.082;18.218;2023-12-20T08:12:44;5.40;;;1.90;;
75550;SDS011;65071;53.082;18.218;2023-12-20T08:15:11;3.30;;;1.80;;
75550;SDS011;65071;53.082;18.218;2023-12-20T08:17:40;3.90;;;1.90;;
75550;SDS011;65071;53.082;18.218;2023-12-20T08:20:07;5.30;;;2.30;;
75550;SDS011;65071;53.082;18.218;2023-12-20T08:22:33;5.30;;;1.80;;
75550;SDS011;65071;53.082;18.218;2023-12-20T08:24:59;4.30;;;1.90;;
75550;SDS011;65071;53.082;18.218;2023-12-20T08:27:26;5.80;;;2.00;;
75550;SDS011;65071;53.082;18.218;2023-12-20T08:29:52;7.00;;;2.50;;
75550;SDS011;65071;53.082;18.218;2023-12-20T08:32:18;4.90;;;2.40;;
75550;SDS011;65071;53.082;18.218;2023-12-20T08:34:45;3.90;;;2.70;;
75550;SDS011;65071;53.082;18.218;2023-12-20T08:37:14;4.60;;;2.90;;
75550;SDS011;65071;53.082;18.218;2023-12-20T08:39:40;3.60;;;2.40;;
75550;SDS011;65071;53.082;18.218;2023-12-20T08:42:07;4.80;;;2.60;;
75550;SDS011;65071;53.082;18.218;2023-12-20T08:44:33;3.20;;;2.10;;
75550;SDS011;65071;53.082;18.218;2023-12-20T08:47:00;5.30;;;2.40;;
75550;SDS011;65071;53.082;18.218;2023-12-20T08:49:26;6.00;;;2.30;;
75550;SDS011;65071;53.082;18.218;2023-12-20T08:51:53;3.20;;;1.70;;
75550;SDS011;65071;53.082;18.218;2023-12-20T08:54:20;3.30;;;1.40;;
75550;SDS011;65071;53.082;18.218;2023-12-20T08:56:46;3.90;;;2.00;;
75550;SDS011;65071;53.082;18.218;2023-12-20T08:59:13;5.10;;;1.70;;
75550;SDS011;65071;53.082;18.218;2023-12-20T09:01:40;3.90;;;1.50;;
75550;SDS011;65071;53.082;18.218;2023-12-20T09:04:06;4.10;;;1.50;;
75550;SDS011;65071;53.082;18.218;2023-12-20T09:06:33;4.50;;;1.80;;
75550;SDS011;65071;53.082;18.218;2023-12-20T09:08:59;5.70;;;1.40;;
75550;SDS011;65071;53.082;18.218;2023-12-20T09:11:26;3.10;;;1.40;;
75550;SDS011;65071;53.082;18.218;2023-12-20T09:13:52;3.30;;;1.80;;
75550;SDS011;65071;53.082;18.218;2023-12-20T09:16:18;5.20;;;2.60;;
75550;SDS011;65071;53.082;18.218;2023-12-20T09:18:45;5.80;;;2.40;;
75550;SDS011;65071;53.082;18.218;2023-12-20T09:21:11;4.50;;;2.10;;
75550;SDS011;65071;53.082;18.218;2023-12-20T09:23:39;4.00;;;2.30;;
75550;SDS011;65071;53.082;18.218;2023-12-20T09:26:06;2.70;;;1.90;;
75550;SDS011;65071;53.082;18.218;2023-12-20T09:28:33;4.40;;;2.30;;
75550;SDS011;65071;53.082;18.218;2023-12-20T09:31:03;5.20;;;2.20;;
75550;SDS011;65071;53.082;18.218;2023-12-20T09:33:32;5.10;;;2.10;;
75550;SDS011;65071;53.082;18.218;2023-12-20T09:36:03;3.30;;;1.60;;
75550;SDS011;65071;53.082;18.218;2023-12-20T09:38:29;3.90;;;2.30;;
75550;SDS011;65071;53.082;18.218;2023-12-20T09:40:56;5.80;;;2.50;;
75550;SDS011;65071;53.082;18.218;2023-12-20T09:43:25;5.70;;;2.20;;
75550;SDS011;65071;53.082;18.218;2023-12-20T09:45:54;2.40;;;1.40;;
75550;SDS011;65071;53.082;18.218;2023-12-20T09:48:26;3.50;;;1.30;;
75550;SDS011;65071;53.082;18.218;2023-12-20T09:50:52;4.10;;;1.90;;
75550;SDS011;65071;53.082;18.218;2023-12-20T09:53:18;3.80;;;2.00;;
75550;SDS011;65071;53.082;18.218;2023-12-20T09:55:45;3.60;;;1.80;;
75550;SDS011;65071;53.082;18.218;2023-12-20T09:58:12;3.60;;;1.70;;
75550;SDS011;65071;53.082;18.218;2023-12-20T10:00:39;3.60;;;1.50;;
75550;SDS011;65071;53.082;18.218;2023-12-20T10:03:06;3.00;;;1.60;;
75550;SDS011;65071;53.082;18.218;2023-12-20T10:05:32;3.40;;;1.40;;
75550;SDS011;65071;53.082;18.218;2023-12-20T10:08:00;3.40;;;1.60;;
75550;SDS011;65071;53.082;18.218;2023-12-20T10:10:27;3.60;;;1.30;;
75550;SDS011;65071;53.082;18.218;2023-12-20T10:13:06;2.40;;;1.30;;
75550;SDS011;65071;53.082;18.218;2023-12-20T10:15:38;4.10;;;1.70;;
75550;SDS011;65071;53.082;18.218;2023-12-20T10:18:07;4.40;;;2.20;;
75550;SDS011;65071;53.082;18.218;2023-12-20T10:20:34;5.10;;;2.10;;
75550;SDS011;65071;53.082;18.218;2023-12-20T10:23:01;5.50;;;2.10;;
75550;SDS011;65071;53.082;18.218;2023-12-20T10:25:27;6.70;;;3.10;;
75550;SDS011;65071;53.082;18.218;2023-12-20T10:28:08;4.40;;;2.40;;
75550;SDS011;65071;53.082;18.218;2023-12-20T10:30:37;3.90;;;2.20;;
75550;SDS011;65071;53.082;18.218;2023-12-20T10:33:05;3.20;;;1.80;;
75550;SDS011;65071;53.082;18.218;2023-12-20T10:35:34;3.80;;;2.00;;
75550;SDS011;65071;53.082;18.218;2023-12-20T10:38:03;3.40;;;2.00;;
75550;SDS011;65071;53.082;18.218;2023-12-20T10:40:34;5.40;;;1.80;;
75550;SDS011;65071;53.082;18.218;2023-12-20T10:43:03;4.60;;;1.80;;
75550;SDS011;65071;53.082;18.218;2023-12-20T10:45:31;4.00;;;1.60;;
75550;SDS011;65071;53.082;18.218;2023-12-20T10:47:57;5.20;;;1.90;;
75550;SDS011;65071;53.082;18.218;2023-12-20T10:50:27;6.30;;;2.10;;
75550;SDS011;65071;53.082;18.218;2023-12-20T10:52:57;3.50;;;1.60;;
75550;SDS011;65071;53.082;18.218;2023-12-20T10:55:24;5.40;;;2.30;;
75550;SDS011;65071;53.082;18.218;2023-12-20T10:57:52;6.50;;;1.80;;
75550;SDS011;65071;53.082;18.218;2023-12-20T11:00:21;6.00;;;1.70;;
75550;SDS011;65071;53.082;18.218;2023-12-20T11:02:49;2.70;;;1.40;;
75550;SDS011;65071;53.082;18.218;2023-12-20T11:05:30;4.50;;;1.70;;
75550;SDS011;65071;53.082;18.218;2023-12-20T11:10:51;3.30;;;1.10;;
75550;SDS011;65071;53.082;18.218;2023-12-20T11:13:28;5.30;;;1.60;;
75550;SDS011;65071;53.082;18.218;2023-12-20T11:15:59;2.10;;;1.10;;
75550;SDS011;65071;53.082;18.218;2023-12-20T11:18:29;3.10;;;1.20;;
75550;SDS011;65071;53.082;18.218;2023-12-20T11:21:00;3.40;;;1.30;;
75550;SDS011;65071;53.082;18.218;2023-12-20T11:23:30;5.70;;;1.40;;
75550;SDS011;65071;53.082;18.218;2023-12-20T11:25:59;5.70;;;1.90;;
75550;SDS011;65071;53.082;18.218;2023-12-20T11:28:27;3.80;;;1.70;;
75550;SDS011;65071;53.082;18.218;2023-12-20T11:30:56;2.90;;;1.30;;
75550;SDS011;65071;53.082;18.218;2023-12-20T11:33:27;3.20;;;1.60;;
75550;SDS011;65071;53.082;18.218;2023-12-20T11:35:57;3.10;;;1.30;;
75550;SDS011;65071;53.082;18.218;2023-12-20T11:38:26;3.40;;;1.40;;
75550;SDS011;65071;53.082;18.218;2023-12-20T11:40:53;4.80;;;1.30;;
75550;SDS011;65071;53.082;18.218;2023-12-20T11:43:30;3.40;;;1.40;;
75550;SDS011;65071;53.082;18.218;2023-12-20T11:46:04;2.80;;;1.30;;
75550;SDS011;65071;53.082;18.218;2023-12-20T11:48:33;4.20;;;1.40;;
75550;SDS011;65071;53.082;18.218;2023-12-20T11:51:01;3.00;;;1.40;;
75550;SDS011;65071;53.082;18.218;2023-12-20T11:53:30;5.20;;;1.40;;
75550;SDS011;65071;53.082;18.218;2023-12-20T11:55:58;4.00;;;1.10;;
75550;SDS011;65071;53.082;18.218;2023-12-20T11:58:24;3.00;;;1.20;;
75550;SDS011;65071;53.082;18.218;2023-12-20T12:00:51;3.10;;;1.50;;
75550;SDS011;65071;53.082;18.218;2023-12-20T12:03:17;4.00;;;1.00;;
75550;SDS011;65071;53.082;18.218;2023-12-20T12:05:45;4.60;;;1.00;;
75550;SDS011;65071;53.082;18.218;2023-12-20T12:08:13;5.10;;;1.10;;
75550;SDS011;65071;53.082;18.218;2023-12-20T12:10:39;4.30;;;1.30;;
75550;SDS011;65071;53.082;18.218;2023-12-20T12:13:06;3.20;;;0.90;;
75550;SDS011;65071;53.082;18.218;2023-12-20T12:15:33;4.80;;;1.20;;
75550;SDS011;65071;53.082;18.218;2023-12-20T12:17:59;5.00;;;1.80;;
75550;SDS011;65071;53.082;18.218;2023-12-20T12:20:26;2.80;;;1.30;;
75550;SDS011;65071;53.082;18.218;2023-12-20T12:22:58;3.10;;;0.90;;
75550;SDS011;65071;53.082;18.218;2023-12-20T12:25:34;2.90;;;1.10;;
75550;SDS011;65071;53.082;18.218;2023-12-20T12:28:06;1.30;;;0.80;;
75550;SDS011;65071;53.082;18.218;2023-12-20T12:30:58;4.30;;;1.10;;
75550;SDS011;65071;53.082;18.218;2023-12-20T12:33:26;2.50;;;1.30;;
75550;SDS011;65071;53.082;18.218;2023-12-20T12:35:52;3.20;;;1.10;;
75550;SDS011;65071;53.082;18.218;2023-12-20T12:38:20;5.00;;;1.40;;
75550;SDS011;65071;53.082;18.218;2023-12-20T12:40:47;3.30;;;1.20;;
75550;SDS011;65071;53.082;18.218;2023-12-20T12:43:13;3.70;;;1.20;;
75550;SDS011;65071;53.082;18.218;2023-12-20T12:45:40;1.40;;;0.80;;
75550;SDS011;65071;53.082;18.218;2023-12-20T12:48:06;2.30;;;1.30;;
75550;SDS011;65071;53.082;18.218;2023-12-20T12:50:33;3.40;;;1.60;;
75550;SDS011;65071;53.082;18.218;2023-12-20T12:52:59;3.50;;;1.10;;
75550;SDS011;65071;53.082;18.218;2023-12-20T12:55:26;3.30;;;1.20;;
75550;SDS011;65071;53.082;18.218;2023-12-20T12:57:52;2.60;;;1.00;;
75550;SDS011;65071;53.082;18.218;2023-12-20T13:00:19;2.70;;;1.60;;
75550;SDS011;65071;53.082;18.218;2023-12-20T13:02:45;2.90;;;1.00;;
75550;SDS011;65071;53.082;18.218;2023-12-20T13:05:12;2.00;;;0.90;;
75550;SDS011;65071;53.082;18.218;2023-12-20T13:07:38;3.20;;;1.30;;
75550;SDS011;65071;53.082;18.218;2023-12-20T13:10:05;2.10;;;1.00;;
75550;SDS011;65071;53.082;18.218;2023-12-20T13:12:32;2.50;;;1.10;;
75550;SDS011;65071;53.082;18.218;2023-12-20T13:14:58;1.70;;;1.00;;
75550;SDS011;65071;53.082;18.218;2023-12-20T13:17:25;4.00;;;1.30;;
75550;SDS011;65071;53.082;18.218;2023-12-20T13:19:51;3.10;;;1.60;;
75550;SDS011;65071;53.082;18.218;2023-12-20T13:22:18;3.20;;;1.10;;
75550;SDS011;65071;53.082;18.218;2023-12-20T13:24:44;3.20;;;1.20;;
75550;SDS011;65071;53.082;18.218;2023-12-20T13:27:11;2.40;;;1.10;;
75550;SDS011;65071;53.082;18.218;2023-12-20T13:29:37;4.70;;;1.20;;
75550;SDS011;65071;53.082;18.218;2023-12-20T13:32:03;2.10;;;1.20;;
75550;SDS011;65071;53.082;18.218;2023-12-20T13:34:30;2.40;;;1.20;;
75550;SDS011;65071;53.082;18.218;2023-12-20T13:36:56;1.70;;;1.10;;
75550;SDS011;65071;53.082;18.218;2023-12-20T13:39:24;2.60;;;1.00;;
75550;SDS011;65071;53.082;18.218;2023-12-20T13:41:50;4.20;;;1.40;;
75550;SDS011;65071;53.082;18.218;2023-12-20T13:44:16;3.00;;;1.20;;
75550;SDS011;65071;53.082;18.218;2023-12-20T13:46:43;2.50;;;1.10;;
75550;SDS011;65071;53.082;18.218;2023-12-20T13:49:09;3.70;;;1.50;;
75550;SDS011;65071;53.082;18.218;2023-12-20T13:51:35;2.90;;;1.10;;
75550;SDS011;65071;53.082;18.218;2023-12-20T13:54:02;2.60;;;1.60;;
75550;SDS011;65071;53.082;18.218;2023-12-20T13:56:29;4.50;;;2.10;;
75550;SDS011;65071;53.082;18.218;2023-12-20T13:58:55;3.50;;;1.90;;
75550;SDS011;65071;53.082;18.218;2023-12-20T14:01:22;3.70;;;2.00;;
75550;SDS011;65071;53.082;18.218;2023-12-20T14:03:49;7.10;;;2.00;;
75550;SDS011;65071;53.082;18.218;2023-12-20T14:06:16;4.70;;;1.60;;
75550;SDS011;65071;53.082;18.218;2023-12-20T14:08:42;2.80;;;1.50;;
75550;SDS011;65071;53.082;18.218;2023-12-20T14:11:09;6.40;;;2.00;;
75550;SDS011;65071;53.082;18.218;2023-12-20T14:13:36;8.80;;;2.90;;
75550;SDS011;65071;53.082;18.218;2023-12-20T14:16:02;7.90;;;2.40;;
75550;SDS011;65071;53.082;18.218;2023-12-20T14:18:29;7.00;;;2.50;;
75550;SDS011;65071;53.082;18.218;2023-12-20T14:20:57;7.20;;;3.40;;
75550;SDS011;65071;53.082;18.218;2023-12-20T14:23:23;7.60;;;2.50;;
75550;SDS011;65071;53.082;18.218;2023-12-20T14:25:49;4.40;;;1.70;;
75550;SDS011;65071;53.082;18.218;2023-12-20T14:28:16;6.30;;;2.80;;
75550;SDS011;65071;53.082;18.218;2023-12-20T14:30:42;5.20;;;1.90;;
75550;SDS011;65071;53.082;18.218;2023-12-20T14:33:08;4.50;;;2.10;;
75550;SDS011;65071;53.082;18.218;2023-12-20T14:35:35;5.60;;;1.90;;